sensor_id;sensor_type;location;lat;lon;timestamp;P1;durP1;ratioP1;P2;durP2;ratioP2
74363;SDS011;62797;49.740;10.154;2023-05-10T00:01:22;8.83;;;5.33;;
74363;SDS011;62797;49.740;10.154;2023-05-10T00:03:48;8.03;;;5.87;;
74363;SDS011;62797;49.740;10.154;2023-05-10T00:06:13;11.20;;;5.27;;
74363;SDS011;62797;49.740;10.154;2023-05-10T00:08:39;7.40;;;3.97;;
74363;SDS011;62797;49.740;10.154;2023-05-10T00:11:06;5.38;;;3.72;;
74363;SDS011;62797;49.740;10.154;2023-05-10T00:13:32;4.68;;;3.97;;
74363;SDS011;62797;49.740;10.154;2023-05-10T00:15:58;5.50;;;3.72;;
74363;SDS011;62797;49.740;10.154;2023-05-10T00:18:23;8.17;;;3.73;;
74363;SDS011;62797;49.740;10.154;2023-05-10T00:20:50;6.88;;;4.22;;
74363;SDS011;62797;49.740;10.154;2023-05-10T00:23:15;5.03;;;3.37;;
74363;SDS011;62797;49.740;10.154;2023-05-10T00:25:41;4.57;;;3.07;;
74363;SDS011;62797;49.740;10.154;2023-05-10T00:28:07;4.63;;;2.50;;
74363;SDS011;62797;49.740;10.154;2023-05-10T00:30:32;7.13;;;3.70;;
74363;SDS011;62797;49.740;10.154;2023-05-10T00:32:58;6.40;;;3.47;;
74363;SDS011;62797;49.740;10.154;2023-05-10T00:35:24;2.63;;;2.42;;
74363;SDS011;62797;49.740;10.154;2023-05-10T00:37:51;3.90;;;2.63;;
74363;SDS011;62797;49.740;10.154;2023-05-10T00:40:16;4.63;;;2.77;;
74363;SDS011;62797;49.740;10.154;2023-05-10T00:42:47;3.67;;;3.05;;
74363;SDS011;62797;49.740;10.154;2023-05-10T00:45:15;4.63;;;3.00;;
74363;SDS011;62797;49.740;10.154;2023-05-10T00:47:40;6.60;;;2.85;;
74363;SDS011;62797;49.740;10.154;2023-05-10T00:50:06;2.40;;;2.20;;
74363;SDS011;62797;49.740;10.154;2023-05-10T00:52:34;5.53;;;2.33;;
74363;SDS011;62797;49.740;10.154;2023-05-10T00:54:59;2.47;;;2.13;;
74363;SDS011;62797;49.740;10.154;2023-05-10T00:57:25;3.22;;;2.50;;
74363;SDS011;62797;49.740;10.154;2023-05-10T00:59:51;2.97;;;2.10;;
74363;SDS011;62797;49.740;10.154;2023-05-10T01:02:17;2.55;;;2.35;;
74363;SDS011;62797;49.740;10.154;2023-05-10T01:04:43;2.50;;;1.70;;
74363;SDS011;62797;49.740;10.154;2023-05-10T01:07:08;3.43;;;2.40;;
74363;SDS011;62797;49.740;10.154;2023-05-10T01:09:34;4.60;;;2.43;;
74363;SDS011;62797;49.740;10.154;2023-05-10T01:12:00;2.65;;;1.80;;
74363;SDS011;62797;49.740;10.154;2023-05-10T01:14:28;4.53;;;2.15;;
74363;SDS011;62797;49.740;10.154;2023-05-10T01:16:54;4.65;;;1.88;;
74363;SDS011;62797;49.740;10.154;2023-05-10T01:24:40;2.42;;;2.22;;
74363;SDS011;62797;49.740;10.154;2023-05-10T01:27:41;7.90;;;2.40;;
74363;SDS011;62797;49.740;10.154;2023-05-10T01:38:42;3.15;;;2.20;;
74363;SDS011;62797;49.740;10.154;2023-05-10T01:41:25;2.30;;;2.08;;
74363;SDS011;62797;49.740;10.154;2023-05-10T01:46:48;2.35;;;1.77;;
74363;SDS011;62797;49.740;10.154;2023-05-10T01:49:23;4.63;;;1.73;;
74363;SDS011;62797;49.740;10.154;2023-05-10T01:51:53;2.17;;;1.80;;
74363;SDS011;62797;49.740;10.154;2023-05-10T01:54:22;2.45;;;2.00;;
74363;SDS011;62797;49.740;10.154;2023-05-10T01:56:50;2.50;;;2.00;;
74363;SDS011;62797;49.740;10.154;2023-05-10T01:59:21;3.00;;;1.88;;
74363;SDS011;62797;49.740;10.154;2023-05-10T02:01:47;2.70;;;2.03;;
74363;SDS011;62797;49.740;10.154;2023-05-10T02:04:16;2.13;;;1.60;;
74363;SDS011;62797;49.740;10.154;2023-05-10T02:06:47;1.60;;;1.45;;
74363;SDS011;62797;49.740;10.154;2023-05-10T02:09:13;1.67;;;1.50;;
74363;SDS011;62797;49.740;10.154;2023-05-10T02:11:41;1.70;;;1.48;;
74363;SDS011;62797;49.740;10.154;2023-05-10T02:14:09;1.52;;;1.42;;
74363;SDS011;62797;49.740;10.154;2023-05-10T02:16:37;3.33;;;1.42;;
74363;SDS011;62797;49.740;10.154;2023-05-10T02:19:04;1.88;;;1.40;;
74363;SDS011;62797;49.740;10.154;2023-05-10T02:21:31;1.90;;;1.38;;
74363;SDS011;62797;49.740;10.154;2023-05-10T02:23:59;3.30;;;1.50;;
74363;SDS011;62797;49.740;10.154;2023-05-10T02:26:27;1.45;;;1.02;;
74363;SDS011;62797;49.740;10.154;2023-05-10T02:28:54;1.30;;;1.20;;
74363;SDS011;62797;49.740;10.154;2023-05-10T02:31:23;1.20;;;1.10;;
74363;SDS011;62797;49.740;10.154;2023-05-10T02:33:49;1.88;;;1.17;;
74363;SDS011;62797;49.740;10.154;2023-05-10T02:36:17;1.05;;;1.05;;
74363;SDS011;62797;49.740;10.154;2023-05-10T02:38:44;1.02;;;0.90;;
74363;SDS011;62797;49.740;10.154;2023-05-10T02:41:11;1.52;;;1.05;;
74363;SDS011;62797;49.740;10.154;2023-05-10T02:43:38;0.80;;;0.80;;
74363;SDS011;62797;49.740;10.154;2023-05-10T02:46:06;0.90;;;0.90;;
74363;SDS011;62797;49.740;10.154;2023-05-10T02:48:34;0.95;;;0.95;;
74363;SDS011;62797;49.740;10.154;2023-05-10T02:51:00;0.73;;;0.70;;
74363;SDS011;62797;49.740;10.154;2023-05-10T02:53:31;1.15;;;0.95;;
74363;SDS011;62797;49.740;10.154;2023-05-10T02:55:59;1.23;;;0.90;;
74363;SDS011;62797;49.740;10.154;2023-05-10T02:58:29;2.20;;;0.80;;
74363;SDS011;62797;49.740;10.154;2023-05-10T03:00:54;9.90;;;2.07;;
74363;SDS011;62797;49.740;10.154;2023-05-10T03:03:20;0.83;;;0.83;;
74363;SDS011;62797;49.740;10.154;2023-05-10T03:05:48;2.50;;;0.73;;
74363;SDS011;62797;49.740;10.154;2023-05-10T03:08:14;0.93;;;0.90;;
74363;SDS011;62797;49.740;10.154;2023-05-10T03:16:08;1.13;;;1.02;;
74363;SDS011;62797;49.740;10.154;2023-05-10T03:21:57;3.65;;;1.20;;
74363;SDS011;62797;49.740;10.154;2023-05-10T03:24:30;0.80;;;0.80;;
74363;SDS011;62797;49.740;10.154;2023-05-10T03:26:59;1.40;;;0.98;;
74363;SDS011;62797;49.740;10.154;2023-05-10T03:29:28;2.25;;;0.90;;
74363;SDS011;62797;49.740;10.154;2023-05-10T03:31:57;1.30;;;1.17;;
74363;SDS011;62797;49.740;10.154;2023-05-10T03:34:24;1.20;;;1.10;;
74363;SDS011;62797;49.740;10.154;2023-05-10T03:36:51;1.65;;;1.15;;
74363;SDS011;62797;49.740;10.154;2023-05-10T03:39:17;1.38;;;1.27;;
74363;SDS011;62797;49.740;10.154;2023-05-10T03:41:49;1.80;;;1.00;;
74363;SDS011;62797;49.740;10.154;2023-05-10T03:44:14;1.80;;;1.50;;
74363;SDS011;62797;49.740;10.154;2023-05-10T03:46:40;1.93;;;0.90;;
74363;SDS011;62797;49.740;10.154;2023-05-10T03:49:05;1.60;;;1.17;;
74363;SDS011;62797;49.740;10.154;2023-05-10T03:51:31;3.13;;;1.30;;
74363;SDS011;62797;49.740;10.154;2023-05-10T03:53:57;1.77;;;1.00;;
74363;SDS011;62797;49.740;10.154;2023-05-10T03:56:23;1.20;;;1.10;;
74363;SDS011;62797;49.740;10.154;2023-05-10T03:58:49;1.43;;;1.33;;
74363;SDS011;62797;49.740;10.154;2023-05-10T04:01:14;2.40;;;1.50;;
74363;SDS011;62797;49.740;10.154;2023-05-10T04:03:40;0.97;;;0.97;;
74363;SDS011;62797;49.740;10.154;2023-05-10T04:06:06;1.50;;;1.40;;
74363;SDS011;62797;49.740;10.154;2023-05-10T04:08:34;1.65;;;1.33;;
74363;SDS011;62797;49.740;10.154;2023-05-10T04:11:09;1.40;;;1.30;;
74363;SDS011;62797;49.740;10.154;2023-05-10T04:13:36;4.07;;;2.20;;
74363;SDS011;62797;49.740;10.154;2023-05-10T04:16:03;1.92;;;1.30;;
74363;SDS011;62797;49.740;10.154;2023-05-10T04:18:29;3.33;;;1.20;;
74363;SDS011;62797;49.740;10.154;2023-05-10T04:23:21;1.60;;;1.20;;
74363;SDS011;62797;49.740;10.154;2023-05-10T04:25:46;1.40;;;1.27;;
74363;SDS011;62797;49.740;10.154;2023-05-10T04:28:12;4.03;;;1.40;;
74363;SDS011;62797;49.740;10.154;2023-05-10T04:30:38;1.10;;;1.10;;
74363;SDS011;62797;49.740;10.154;2023-05-10T04:33:03;1.27;;;1.17;;
74363;SDS011;62797;49.740;10.154;2023-05-10T04:35:29;1.53;;;1.20;;
74363;SDS011;62797;49.740;10.154;2023-05-10T04:37:55;2.55;;;1.10;;
74363;SDS011;62797;49.740;10.154;2023-05-10T04:40:21;1.67;;;1.10;;
74363;SDS011;62797;49.740;10.154;2023-05-10T04:42:46;1.97;;;1.40;;
74363;SDS011;62797;49.740;10.154;2023-05-10T04:45:12;4.90;;;1.10;;
74363;SDS011;62797;49.740;10.154;2023-05-10T04:47:39;1.58;;;1.23;;
74363;SDS011;62797;49.740;10.154;2023-05-10T04:50:05;2.37;;;1.30;;
74363;SDS011;62797;49.740;10.154;2023-05-10T04:54:57;2.38;;;0.90;;
74363;SDS011;62797;49.740;10.154;2023-05-10T04:57:22;1.30;;;1.20;;
74363;SDS011;62797;49.740;10.154;2023-05-10T04:59:48;1.97;;;1.20;;
74363;SDS011;62797;49.740;10.154;2023-05-10T05:02:14;1.87;;;1.47;;
74363;SDS011;62797;49.740;10.154;2023-05-10T05:04:39;5.00;;;2.03;;
74363;SDS011;62797;49.740;10.154;2023-05-10T05:07:05;1.40;;;1.30;;
74363;SDS011;62797;49.740;10.154;2023-05-10T05:09:31;7.90;;;1.27;;
74363;SDS011;62797;49.740;10.154;2023-05-10T05:11:59;1.55;;;1.30;;
74363;SDS011;62797;49.740;10.154;2023-05-10T05:14:25;1.47;;;1.37;;
74363;SDS011;62797;49.740;10.154;2023-05-10T05:16:51;1.63;;;1.53;;
74363;SDS011;62797;49.740;10.154;2023-05-10T05:19:17;4.28;;;1.73;;
74363;SDS011;62797;49.740;10.154;2023-05-10T05:21:43;1.52;;;1.42;;
74363;SDS011;62797;49.740;10.154;2023-05-10T05:24:09;1.45;;;1.35;;
74363;SDS011;62797;49.740;10.154;2023-05-10T05:26:35;2.42;;;1.90;;
74363;SDS011;62797;49.740;10.154;2023-05-10T05:29:01;1.90;;;1.70;;
74363;SDS011;62797;49.740;10.154;2023-05-10T05:31:27;1.60;;;1.50;;
74363;SDS011;62797;49.740;10.154;2023-05-10T05:33:53;3.40;;;1.60;;
74363;SDS011;62797;49.740;10.154;2023-05-10T05:36:19;3.73;;;1.97;;
74363;SDS011;62797;49.740;10.154;2023-05-10T05:38:44;3.10;;;1.93;;
74363;SDS011;62797;49.740;10.154;2023-05-10T05:41:10;3.93;;;1.70;;
74363;SDS011;62797;49.740;10.154;2023-05-10T05:43:36;1.63;;;1.53;;
74363;SDS011;62797;49.740;10.154;2023-05-10T05:46:01;4.60;;;1.87;;
74363;SDS011;62797;49.740;10.154;2023-05-10T05:48:27;2.17;;;1.70;;
74363;SDS011;62797;49.740;10.154;2023-05-10T05:50:54;2.08;;;1.88;;
74363;SDS011;62797;49.740;10.154;2023-05-10T05:53:23;6.90;;;1.77;;
74363;SDS011;62797;49.740;10.154;2023-05-10T05:55:53;2.73;;;2.30;;
74363;SDS011;62797;49.740;10.154;2023-05-10T05:58:19;3.88;;;1.92;;
74363;SDS011;62797;49.740;10.154;2023-05-10T06:00:45;2.38;;;2.17;;
74363;SDS011;62797;49.740;10.154;2023-05-10T06:03:11;2.80;;;2.23;;
74363;SDS011;62797;49.740;10.154;2023-05-10T06:05:37;2.90;;;1.95;;
74363;SDS011;62797;49.740;10.154;2023-05-10T06:08:02;4.63;;;2.30;;
74363;SDS011;62797;49.740;10.154;2023-05-10T06:10:28;5.13;;;2.27;;
74363;SDS011;62797;49.740;10.154;2023-05-10T06:12:55;2.25;;;1.63;;
74363;SDS011;62797;49.740;10.154;2023-05-10T06:15:21;3.50;;;2.20;;
74363;SDS011;62797;49.740;10.154;2023-05-10T06:17:49;6.45;;;3.10;;
74363;SDS011;62797;49.740;10.154;2023-05-10T06:20:15;4.70;;;2.50;;
74363;SDS011;62797;49.740;10.154;2023-05-10T06:22:41;2.63;;;2.15;;
74363;SDS011;62797;49.740;10.154;2023-05-10T06:25:07;2.88;;;2.25;;
74363;SDS011;62797;49.740;10.154;2023-05-10T06:29:59;8.15;;;2.90;;
74363;SDS011;62797;49.740;10.154;2023-05-10T06:32:25;3.50;;;2.80;;
74363;SDS011;62797;49.740;10.154;2023-05-10T06:34:51;3.80;;;3.20;;
74363;SDS011;62797;49.740;10.154;2023-05-10T06:37:17;6.53;;;2.55;;
74363;SDS011;62797;49.740;10.154;2023-05-10T06:39:42;6.90;;;3.17;;
74363;SDS011;62797;49.740;10.154;2023-05-10T06:42:11;4.53;;;3.70;;
74363;SDS011;62797;49.740;10.154;2023-05-10T06:44:36;6.75;;;2.63;;
74363;SDS011;62797;49.740;10.154;2023-05-10T06:47:02;6.40;;;3.07;;
74363;SDS011;62797;49.740;10.154;2023-05-10T06:49:27;4.00;;;2.43;;
74363;SDS011;62797;49.740;10.154;2023-05-10T06:51:53;5.33;;;2.80;;
74363;SDS011;62797;49.740;10.154;2023-05-10T06:54:20;9.35;;;2.92;;
74363;SDS011;62797;49.740;10.154;2023-05-10T06:56:46;6.13;;;2.70;;
74363;SDS011;62797;49.740;10.154;2023-05-10T06:59:11;3.80;;;2.77;;
74363;SDS011;62797;49.740;10.154;2023-05-10T07:01:38;3.53;;;2.58;;
74363;SDS011;62797;49.740;10.154;2023-05-10T07:04:04;5.35;;;2.47;;
74363;SDS011;62797;49.740;10.154;2023-05-10T07:06:30;6.73;;;1.90;;
74363;SDS011;62797;49.740;10.154;2023-05-10T07:08:55;2.67;;;2.10;;
74363;SDS011;62797;49.740;10.154;2023-05-10T07:11:22;2.90;;;1.98;;
74363;SDS011;62797;49.740;10.154;2023-05-10T07:13:48;2.38;;;1.70;;
74363;SDS011;62797;49.740;10.154;2023-05-10T07:16:14;2.27;;;1.77;;
74363;SDS011;62797;49.740;10.154;2023-05-10T07:18:40;7.40;;;2.50;;
74363;SDS011;62797;49.740;10.154;2023-05-10T07:21:05;4.07;;;2.30;;
74363;SDS011;62797;49.740;10.154;2023-05-10T07:23:31;5.40;;;2.58;;
74363;SDS011;62797;49.740;10.154;2023-05-10T07:25:57;5.43;;;2.47;;
74363;SDS011;62797;49.740;10.154;2023-05-10T07:28:23;6.47;;;1.90;;
74363;SDS011;62797;49.740;10.154;2023-05-10T07:30:51;3.22;;;2.50;;
74363;SDS011;62797;49.740;10.154;2023-05-10T07:33:17;5.13;;;2.53;;
74363;SDS011;62797;49.740;10.154;2023-05-10T07:35:43;3.17;;;1.97;;
74363;SDS011;62797;49.740;10.154;2023-05-10T07:38:08;6.25;;;2.08;;
74363;SDS011;62797;49.740;10.154;2023-05-10T07:40:36;2.42;;;1.70;;
74363;SDS011;62797;49.740;10.154;2023-05-10T07:43:02;4.03;;;2.78;;
74363;SDS011;62797;49.740;10.154;2023-05-10T07:45:28;5.20;;;1.83;;
74363;SDS011;62797;49.740;10.154;2023-05-10T07:47:53;3.97;;;2.80;;
74363;SDS011;62797;49.740;10.154;2023-05-10T07:50:19;3.40;;;1.93;;
74363;SDS011;62797;49.740;10.154;2023-05-10T07:55:11;6.25;;;3.42;;
74363;SDS011;62797;49.740;10.154;2023-05-10T07:57:37;7.22;;;2.45;;
74363;SDS011;62797;49.740;10.154;2023-05-10T08:00:03;6.78;;;2.25;;
74363;SDS011;62797;49.740;10.154;2023-05-10T08:02:38;5.03;;;2.53;;
74363;SDS011;62797;49.740;10.154;2023-05-10T08:05:04;5.13;;;3.07;;
74363;SDS011;62797;49.740;10.154;2023-05-10T08:07:30;6.28;;;2.88;;
74363;SDS011;62797;49.740;10.154;2023-05-10T08:09:56;4.13;;;3.40;;
74363;SDS011;62797;49.740;10.154;2023-05-10T08:12:21;3.77;;;2.40;;
74363;SDS011;62797;49.740;10.154;2023-05-10T08:14:47;3.33;;;2.30;;
74363;SDS011;62797;49.740;10.154;2023-05-10T08:17:13;5.83;;;2.07;;
74363;SDS011;62797;49.740;10.154;2023-05-10T08:19:38;11.23;;;2.00;;
74363;SDS011;62797;49.740;10.154;2023-05-10T08:22:04;3.40;;;2.17;;
74363;SDS011;62797;49.740;10.154;2023-05-10T08:24:30;2.03;;;1.50;;
74363;SDS011;62797;49.740;10.154;2023-05-10T08:26:56;5.00;;;2.37;;
74363;SDS011;62797;49.740;10.154;2023-05-10T08:29:22;4.95;;;1.92;;
74363;SDS011;62797;49.740;10.154;2023-05-10T08:31:48;2.95;;;1.80;;
74363;SDS011;62797;49.740;10.154;2023-05-10T08:34:14;4.67;;;2.40;;
74363;SDS011;62797;49.740;10.154;2023-05-10T08:36:42;6.13;;;2.38;;
74363;SDS011;62797;49.740;10.154;2023-05-10T08:39:08;10.82;;;2.10;;
74363;SDS011;62797;49.740;10.154;2023-05-10T08:41:34;2.53;;;1.55;;
74363;SDS011;62797;49.740;10.154;2023-05-10T08:44:04;5.75;;;1.83;;
74363;SDS011;62797;49.740;10.154;2023-05-10T08:46:30;4.00;;;2.10;;
74363;SDS011;62797;49.740;10.154;2023-05-10T08:49:02;2.88;;;1.95;;
74363;SDS011;62797;49.740;10.154;2023-05-10T08:51:29;7.40;;;2.30;;
74363;SDS011;62797;49.740;10.154;2023-05-10T08:54:01;3.72;;;1.80;;
74363;SDS011;62797;49.740;10.154;2023-05-10T08:56:28;9.88;;;2.05;;
74363;SDS011;62797;49.740;10.154;2023-05-10T08:58:54;11.77;;;1.90;;
74363;SDS011;62797;49.740;10.154;2023-05-10T09:01:20;5.55;;;2.00;;
74363;SDS011;62797;49.740;10.154;2023-05-10T09:03:46;8.75;;;2.70;;
74363;SDS011;62797;49.740;10.154;2023-05-10T09:06:13;3.90;;;1.95;;
74363;SDS011;62797;49.740;10.154;2023-05-10T09:08:40;3.15;;;2.20;;
74363;SDS011;62797;49.740;10.154;2023-05-10T09:11:08;1.90;;;1.63;;
74363;SDS011;62797;49.740;10.154;2023-05-10T09:13:34;6.43;;;1.88;;
74363;SDS011;62797;49.740;10.154;2023-05-10T09:16:01;9.88;;;2.22;;
74363;SDS011;62797;49.740;10.154;2023-05-10T09:18:27;6.53;;;3.05;;
74363;SDS011;62797;49.740;10.154;2023-05-10T09:20:54;2.83;;;1.70;;
74363;SDS011;62797;49.740;10.154;2023-05-10T09:23:19;6.53;;;1.60;;
74363;SDS011;62797;49.740;10.154;2023-05-10T09:25:45;5.60;;;2.17;;
74363;SDS011;62797;49.740;10.154;2023-05-10T09:28:11;13.95;;;2.00;;
74363;SDS011;62797;49.740;10.154;2023-05-10T09:30:37;7.43;;;2.03;;
74363;SDS011;62797;49.740;10.154;2023-05-10T09:33:03;8.65;;;2.08;;
74363;SDS011;62797;49.740;10.154;2023-05-10T09:35:29;2.90;;;1.77;;
74363;SDS011;62797;49.740;10.154;2023-05-10T09:38:02;6.15;;;1.85;;
74363;SDS011;62797;49.740;10.154;2023-05-10T09:40:31;6.70;;;2.00;;
74363;SDS011;62797;49.740;10.154;2023-05-10T09:43:01;3.25;;;2.10;;
74363;SDS011;62797;49.740;10.154;2023-05-10T09:45:33;3.67;;;2.20;;
74363;SDS011;62797;49.740;10.154;2023-05-10T09:48:01;4.00;;;2.05;;
74363;SDS011;62797;49.740;10.154;2023-05-10T09:50:28;2.88;;;1.52;;
74363;SDS011;62797;49.740;10.154;2023-05-10T09:58:01;3.35;;;1.63;;
74363;SDS011;62797;49.740;10.154;2023-05-10T10:00:27;1.88;;;1.38;;
74363;SDS011;62797;49.740;10.154;2023-05-10T10:02:59;4.68;;;1.90;;
74363;SDS011;62797;49.740;10.154;2023-05-10T10:05:29;8.15;;;2.63;;
74363;SDS011;62797;49.740;10.154;2023-05-10T10:07:56;12.30;;;2.13;;
74363;SDS011;62797;49.740;10.154;2023-05-10T10:10:23;3.17;;;1.50;;
74363;SDS011;62797;49.740;10.154;2023-05-10T10:12:50;2.38;;;1.40;;
74363;SDS011;62797;49.740;10.154;2023-05-10T10:15:16;3.20;;;1.40;;
74363;SDS011;62797;49.740;10.154;2023-05-10T10:17:42;2.55;;;1.63;;
74363;SDS011;62797;49.740;10.154;2023-05-10T10:20:08;9.00;;;1.98;;
74363;SDS011;62797;49.740;10.154;2023-05-10T10:22:34;6.18;;;2.35;;
74363;SDS011;62797;49.740;10.154;2023-05-10T10:25:01;3.00;;;1.40;;
74363;SDS011;62797;49.740;10.154;2023-05-10T10:33:00;2.05;;;1.33;;
74363;SDS011;62797;49.740;10.154;2023-05-10T10:35:36;7.55;;;1.85;;
74363;SDS011;62797;49.740;10.154;2023-05-10T10:38:02;2.67;;;1.50;;
74363;SDS011;62797;49.740;10.154;2023-05-10T10:40:31;1.75;;;1.45;;
74363;SDS011;62797;49.740;10.154;2023-05-10T10:43:20;2.20;;;1.58;;
74363;SDS011;62797;49.740;10.154;2023-05-10T10:46:10;1.45;;;1.30;;
74363;SDS011;62797;49.740;10.154;2023-05-10T10:48:40;3.33;;;1.40;;
74363;SDS011;62797;49.740;10.154;2023-05-10T10:51:18;3.15;;;1.30;;
74363;SDS011;62797;49.740;10.154;2023-05-10T10:53:44;4.10;;;1.80;;
74363;SDS011;62797;49.740;10.154;2023-05-10T10:56:13;5.45;;;1.30;;
74363;SDS011;62797;49.740;10.154;2023-05-10T10:58:40;3.90;;;1.40;;
74363;SDS011;62797;49.740;10.154;2023-05-10T11:01:13;5.15;;;1.23;;
74363;SDS011;62797;49.740;10.154;2023-05-10T11:04:17;1.48;;;1.10;;
74363;SDS011;62797;49.740;10.154;2023-05-10T11:06:35;4.97;;;2.08;;
74363;SDS011;62797;49.740;10.154;2023-05-10T11:09:07;4.50;;;1.02;;
74363;SDS011;62797;49.740;10.154;2023-05-10T11:11:34;2.00;;;1.23;;
74363;SDS011;62797;49.740;10.154;2023-05-10T11:14:04;4.65;;;1.00;;
74363;SDS011;62797;49.740;10.154;2023-05-10T11:16:41;3.50;;;1.23;;
74363;SDS011;62797;49.740;10.154;2023-05-10T11:19:11;5.10;;;1.60;;
74363;SDS011;62797;49.740;10.154;2023-05-10T11:21:51;2.55;;;1.65;;
74363;SDS011;62797;49.740;10.154;2023-05-10T11:24:30;3.13;;;1.27;;
74363;SDS011;62797;49.740;10.154;2023-05-10T11:26:56;1.75;;;1.52;;
74363;SDS011;62797;49.740;10.154;2023-05-10T11:29:22;3.73;;;1.13;;
74363;SDS011;62797;49.740;10.154;2023-05-10T11:31:48;1.90;;;1.40;;
74363;SDS011;62797;49.740;10.154;2023-05-10T11:36:59;2.35;;;1.25;;
74363;SDS011;62797;49.740;10.154;2023-05-10T11:39:26;2.53;;;1.20;;
74363;SDS011;62797;49.740;10.154;2023-05-10T11:41:53;4.35;;;1.85;;
74363;SDS011;62797;49.740;10.154;2023-05-10T11:44:19;3.00;;;1.40;;
74363;SDS011;62797;49.740;10.154;2023-05-10T11:46:45;4.88;;;1.40;;
74363;SDS011;62797;49.740;10.154;2023-05-10T11:49:10;1.60;;;1.50;;
74363;SDS011;62797;49.740;10.154;2023-05-10T11:51:38;1.80;;;1.20;;
74363;SDS011;62797;49.740;10.154;2023-05-10T11:54:09;3.63;;;1.20;;
74363;SDS011;62797;49.740;10.154;2023-05-10T11:56:36;4.20;;;1.10;;
74363;SDS011;62797;49.740;10.154;2023-05-10T11:59:05;4.68;;;1.00;;
74363;SDS011;62797;49.740;10.154;2023-05-10T12:01:32;3.13;;;1.48;;
74363;SDS011;62797;49.740;10.154;2023-05-10T12:03:58;5.15;;;1.20;;
74363;SDS011;62797;49.740;10.154;2023-05-10T12:06:29;2.65;;;1.30;;
74363;SDS011;62797;49.740;10.154;2023-05-10T12:08:57;4.68;;;1.70;;
74363;SDS011;62797;49.740;10.154;2023-05-10T12:11:27;2.35;;;0.95;;
74363;SDS011;62797;49.740;10.154;2023-05-10T12:13:54;3.85;;;1.17;;
74363;SDS011;62797;49.740;10.154;2023-05-10T12:16:24;2.47;;;1.20;;
74363;SDS011;62797;49.740;10.154;2023-05-10T12:18:53;1.60;;;1.20;;
74363;SDS011;62797;49.740;10.154;2023-05-10T12:21:21;2.22;;;1.00;;
74363;SDS011;62797;49.740;10.154;2023-05-10T12:23:48;5.60;;;1.60;;
74363;SDS011;62797;49.740;10.154;2023-05-10T12:26:20;5.88;;;1.08;;
74363;SDS011;62797;49.740;10.154;2023-05-10T12:28:47;2.65;;;1.05;;
74363;SDS011;62797;49.740;10.154;2023-05-10T12:31:13;1.20;;;1.10;;
74363;SDS011;62797;49.740;10.154;2023-05-10T12:33:39;4.17;;;1.43;;
74363;SDS011;62797;49.740;10.154;2023-05-10T12:36:10;1.48;;;1.23;;
74363;SDS011;62797;49.740;10.154;2023-05-10T12:38:37;2.30;;;1.10;;
74363;SDS011;62797;49.740;10.154;2023-05-10T12:41:05;2.58;;;1.40;;
74363;SDS011;62797;49.740;10.154;2023-05-10T12:43:32;3.40;;;1.13;;
74363;SDS011;62797;49.740;10.154;2023-05-10T12:45:58;3.05;;;1.40;;
74363;SDS011;62797;49.740;10.154;2023-05-10T12:48:29;7.57;;;2.20;;
74363;SDS011;62797;49.740;10.154;2023-05-10T12:50:56;9.38;;;1.42;;
74363;SDS011;62797;49.740;10.154;2023-05-10T12:53:22;3.17;;;1.50;;
74363;SDS011;62797;49.740;10.154;2023-05-10T12:55:47;11.17;;;1.33;;
74363;SDS011;62797;49.740;10.154;2023-05-10T12:58:13;5.18;;;1.30;;
74363;SDS011;62797;49.740;10.154;2023-05-10T13:00:39;6.37;;;1.20;;
74363;SDS011;62797;49.740;10.154;2023-05-10T13:03:04;1.20;;;0.93;;
74363;SDS011;62797;49.740;10.154;2023-05-10T13:05:33;6.43;;;1.40;;
74363;SDS011;62797;49.740;10.154;2023-05-10T13:07:59;16.80;;;1.70;;
74363;SDS011;62797;49.740;10.154;2023-05-10T13:10:25;8.83;;;1.10;;
74363;SDS011;62797;49.740;10.154;2023-05-10T13:12:51;5.40;;;0.97;;
74363;SDS011;62797;49.740;10.154;2023-05-10T13:15:16;2.92;;;1.40;;
74363;SDS011;62797;49.740;10.154;2023-05-10T13:17:42;6.80;;;1.63;;
74363;SDS011;62797;49.740;10.154;2023-05-10T13:20:08;1.38;;;1.10;;
74363;SDS011;62797;49.740;10.154;2023-05-10T13:22:35;2.13;;;1.40;;
74363;SDS011;62797;49.740;10.154;2023-05-10T13:25:01;5.78;;;1.38;;
74363;SDS011;62797;49.740;10.154;2023-05-10T13:27:26;1.63;;;1.10;;
74363;SDS011;62797;49.740;10.154;2023-05-10T13:29:54;1.88;;;1.38;;
74363;SDS011;62797;49.740;10.154;2023-05-10T13:32:20;3.07;;;2.00;;
74363;SDS011;62797;49.740;10.154;2023-05-10T13:34:46;5.47;;;2.00;;
74363;SDS011;62797;49.740;10.154;2023-05-10T13:37:11;6.00;;;2.13;;
74363;SDS011;62797;49.740;10.154;2023-05-10T13:39:37;3.83;;;1.73;;
74363;SDS011;62797;49.740;10.154;2023-05-10T13:42:03;3.23;;;1.50;;
74363;SDS011;62797;49.740;10.154;2023-05-10T13:44:29;19.95;;;2.63;;
74363;SDS011;62797;49.740;10.154;2023-05-10T13:46:55;3.47;;;2.28;;
74363;SDS011;62797;49.740;10.154;2023-05-10T13:51:47;8.90;;;2.30;;
74363;SDS011;62797;49.740;10.154;2023-05-10T13:54:13;5.32;;;1.90;;
74363;SDS011;62797;49.740;10.154;2023-05-10T13:56:39;6.07;;;2.47;;
74363;SDS011;62797;49.740;10.154;2023-05-10T13:59:06;3.50;;;2.00;;
74363;SDS011;62797;49.740;10.154;2023-05-10T14:01:32;3.03;;;2.10;;
74363;SDS011;62797;49.740;10.154;2023-05-10T14:03:58;6.43;;;2.77;;
74363;SDS011;62797;49.740;10.154;2023-05-10T14:06:24;6.60;;;2.83;;
74363;SDS011;62797;49.740;10.154;2023-05-10T14:08:50;3.73;;;2.40;;
74363;SDS011;62797;49.740;10.154;2023-05-10T14:11:15;6.23;;;2.03;;
74363;SDS011;62797;49.740;10.154;2023-05-10T14:13:41;15.37;;;3.13;;
74363;SDS011;62797;49.740;10.154;2023-05-10T14:16:07;4.30;;;3.10;;
74363;SDS011;62797;49.740;10.154;2023-05-10T14:18:32;2.60;;;2.40;;
74363;SDS011;62797;49.740;10.154;2023-05-10T14:20:58;6.27;;;2.97;;
74363;SDS011;62797;49.740;10.154;2023-05-10T14:23:24;2.60;;;2.40;;
74363;SDS011;62797;49.740;10.154;2023-05-10T14:25:50;4.80;;;1.88;;
74363;SDS011;62797;49.740;10.154;2023-05-10T14:28:16;2.40;;;2.20;;
74363;SDS011;62797;49.740;10.154;2023-05-10T14:33:09;2.28;;;2.08;;
74363;SDS011;62797;49.740;10.154;2023-05-10T14:35:35;6.10;;;3.33;;
74363;SDS011;62797;49.740;10.154;2023-05-10T14:38:01;3.00;;;1.83;;
74363;SDS011;62797;49.740;10.154;2023-05-10T14:40:28;7.78;;;3.13;;
74363;SDS011;62797;49.740;10.154;2023-05-10T14:42:54;4.88;;;2.58;;
74363;SDS011;62797;49.740;10.154;2023-05-10T14:45:20;2.70;;;2.10;;
74363;SDS011;62797;49.740;10.154;2023-05-10T14:47:46;4.10;;;2.63;;
74363;SDS011;62797;49.740;10.154;2023-05-10T14:50:11;5.90;;;2.97;;
74363;SDS011;62797;49.740;10.154;2023-05-10T14:52:37;6.17;;;2.37;;
74363;SDS011;62797;49.740;10.154;2023-05-10T14:55:02;6.63;;;2.07;;
74363;SDS011;62797;49.740;10.154;2023-05-10T14:57:28;3.60;;;2.25;;
74363;SDS011;62797;49.740;10.154;2023-05-10T14:59:55;2.70;;;2.50;;
74363;SDS011;62797;49.740;10.154;2023-05-10T15:02:21;7.05;;;2.60;;
74363;SDS011;62797;49.740;10.154;2023-05-10T15:04:47;4.23;;;2.50;;
74363;SDS011;62797;49.740;10.154;2023-05-10T15:07:12;5.43;;;2.63;;
74363;SDS011;62797;49.740;10.154;2023-05-10T15:09:41;2.10;;;1.83;;
74363;SDS011;62797;49.740;10.154;2023-05-10T15:12:06;8.10;;;2.63;;
74363;SDS011;62797;49.740;10.154;2023-05-10T15:14:32;7.33;;;2.10;;
74363;SDS011;62797;49.740;10.154;2023-05-10T15:16:58;4.17;;;2.70;;
74363;SDS011;62797;49.740;10.154;2023-05-10T15:19:24;7.63;;;3.55;;
74363;SDS011;62797;49.740;10.154;2023-05-10T15:21:50;3.42;;;2.75;;
74363;SDS011;62797;49.740;10.154;2023-05-10T15:24:18;2.13;;;1.97;;
74363;SDS011;62797;49.740;10.154;2023-05-10T15:26:44;2.65;;;1.95;;